sensor_id;sensor_type;location;lat;lon;timestamp;P1;durP1;ratioP1;P2;durP2;ratioP2
77544;SDS011;66672;50.328;7.610;2023-05-19T00:02:15;3.83;;;1.52;;
77544;SDS011;66672;50.328;7.610;2023-05-19T00:04:40;6.30;;;1.80;;
77544;SDS011;66672;50.328;7.610;2023-05-19T00:07:05;5.38;;;1.83;;
77544;SDS011;66672;50.328;7.610;2023-05-19T00:09:34;4.25;;;1.77;;
77544;SDS011;66672;50.328;7.610;2023-05-19T00:11:59;5.40;;;1.80;;
77544;SDS011;66672;50.328;7.610;2023-05-19T00:14:25;5.75;;;1.75;;
77544;SDS011;66672;50.328;7.610;2023-05-19T00:16:50;5.57;;;1.73;;
77544;SDS011;66672;50.328;7.610;2023-05-19T00:19:15;3.65;;;1.58;;
77544;SDS011;66672;50.328;7.610;2023-05-19T00:21:41;4.95;;;1.80;;
77544;SDS011;66672;50.328;7.610;2023-05-19T00:24:06;4.53;;;1.70;;
77544;SDS011;66672;50.328;7.610;2023-05-19T00:26:31;4.10;;;1.55;;
77544;SDS011;66672;50.328;7.610;2023-05-19T00:28:57;7.53;;;1.80;;
77544;SDS011;66672;50.328;7.610;2023-05-19T00:31:22;6.05;;;2.03;;
77544;SDS011;66672;50.328;7.610;2023-05-19T00:33:47;3.63;;;1.85;;
77544;SDS011;66672;50.328;7.610;2023-05-19T00:36:13;5.70;;;1.65;;
77544;SDS011;66672;50.328;7.610;2023-05-19T00:38:38;6.65;;;2.08;;
77544;SDS011;66672;50.328;7.610;2023-05-19T00:41:03;7.38;;;2.83;;
77544;SDS011;66672;50.328;7.610;2023-05-19T00:43:29;4.88;;;1.65;;
77544;SDS011;66672;50.328;7.610;2023-05-19T00:45:54;5.97;;;2.63;;
77544;SDS011;66672;50.328;7.610;2023-05-19T00:48:20;6.50;;;1.73;;
77544;SDS011;66672;50.328;7.610;2023-05-19T00:50:45;6.22;;;1.88;;
77544;SDS011;66672;50.328;7.610;2023-05-19T00:53:12;5.13;;;2.00;;
77544;SDS011;66672;50.328;7.610;2023-05-19T00:55:37;5.10;;;2.00;;
77544;SDS011;66672;50.328;7.610;2023-05-19T00:58:04;5.15;;;1.70;;
77544;SDS011;66672;50.328;7.610;2023-05-19T01:00:30;7.80;;;1.73;;
77544;SDS011;66672;50.328;7.610;2023-05-19T01:02:55;4.07;;;1.75;;
77544;SDS011;66672;50.328;7.610;2023-05-19T01:05:21;6.68;;;1.58;;
77544;SDS011;66672;50.328;7.610;2023-05-19T01:07:46;3.75;;;1.70;;
77544;SDS011;66672;50.328;7.610;2023-05-19T01:10:11;4.45;;;1.38;;
77544;SDS011;66672;50.328;7.610;2023-05-19T01:12:36;5.35;;;1.73;;
77544;SDS011;66672;50.328;7.610;2023-05-19T01:15:02;7.00;;;1.90;;
77544;SDS011;66672;50.328;7.610;2023-05-19T01:17:41;6.40;;;1.83;;
77544;SDS011;66672;50.328;7.610;2023-05-19T01:22:39;9.00;;;1.65;;
77544;SDS011;66672;50.328;7.610;2023-05-19T01:30:22;7.38;;;1.95;;
77544;SDS011;66672;50.328;7.610;2023-05-19T01:32:50;4.30;;;1.80;;
77544;SDS011;66672;50.328;7.610;2023-05-19T01:35:17;7.60;;;1.95;;
77544;SDS011;66672;50.328;7.610;2023-05-19T01:37:42;5.05;;;1.92;;
77544;SDS011;66672;50.328;7.610;2023-05-19T01:40:09;6.60;;;2.67;;
77544;SDS011;66672;50.328;7.610;2023-05-19T01:42:35;7.13;;;2.20;;
77544;SDS011;66672;50.328;7.610;2023-05-19T01:45:04;4.43;;;1.63;;
77544;SDS011;66672;50.328;7.610;2023-05-19T01:47:31;5.53;;;1.70;;
77544;SDS011;66672;50.328;7.610;2023-05-19T01:49:57;4.38;;;1.70;;
77544;SDS011;66672;50.328;7.610;2023-05-19T01:52:22;3.97;;;1.60;;
77544;SDS011;66672;50.328;7.610;2023-05-19T01:54:47;6.97;;;2.30;;
77544;SDS011;66672;50.328;7.610;2023-05-19T01:57:23;5.13;;;1.70;;
77544;SDS011;66672;50.328;7.610;2023-05-19T01:59:57;5.07;;;1.77;;
77544;SDS011;66672;50.328;7.610;2023-05-19T02:04:59;6.32;;;1.90;;
77544;SDS011;66672;50.328;7.610;2023-05-19T02:07:34;4.10;;;1.85;;
77544;SDS011;66672;50.328;7.610;2023-05-19T02:10:05;4.10;;;1.42;;
77544;SDS011;66672;50.328;7.610;2023-05-19T02:12:34;4.28;;;1.58;;
77544;SDS011;66672;50.328;7.610;2023-05-19T02:15:04;5.13;;;1.70;;
77544;SDS011;66672;50.328;7.610;2023-05-19T02:17:31;5.13;;;2.13;;
77544;SDS011;66672;50.328;7.610;2023-05-19T02:19:57;3.97;;;1.85;;
77544;SDS011;66672;50.328;7.610;2023-05-19T02:22:22;3.85;;;1.90;;
77544;SDS011;66672;50.328;7.610;2023-05-19T02:24:47;6.35;;;2.05;;
77544;SDS011;66672;50.328;7.610;2023-05-19T02:27:15;4.95;;;1.85;;
77544;SDS011;66672;50.328;7.610;2023-05-19T02:29:40;7.75;;;2.38;;
77544;SDS011;66672;50.328;7.610;2023-05-19T02:32:06;5.10;;;2.08;;
77544;SDS011;66672;50.328;7.610;2023-05-19T02:34:31;7.70;;;2.05;;
77544;SDS011;66672;50.328;7.610;2023-05-19T02:36:56;6.18;;;2.95;;
77544;SDS011;66672;50.328;7.610;2023-05-19T02:39:21;5.90;;;2.05;;
77544;SDS011;66672;50.328;7.610;2023-05-19T02:41:46;4.32;;;1.48;;
77544;SDS011;66672;50.328;7.610;2023-05-19T02:44:12;5.70;;;2.72;;
77544;SDS011;66672;50.328;7.610;2023-05-19T02:46:37;5.13;;;1.90;;
77544;SDS011;66672;50.328;7.610;2023-05-19T02:49:02;4.20;;;1.70;;
77544;SDS011;66672;50.328;7.610;2023-05-19T02:51:27;4.32;;;1.90;;
77544;SDS011;66672;50.328;7.610;2023-05-19T02:53:52;6.55;;;2.05;;
77544;SDS011;66672;50.328;7.610;2023-05-19T02:56:18;5.22;;;1.80;;
77544;SDS011;66672;50.328;7.610;2023-05-19T02:58:43;4.72;;;1.67;;
77544;SDS011;66672;50.328;7.610;2023-05-19T03:01:08;3.35;;;1.73;;
77544;SDS011;66672;50.328;7.610;2023-05-19T03:03:33;7.60;;;2.45;;
77544;SDS011;66672;50.328;7.610;2023-05-19T03:05:59;4.38;;;1.70;;
77544;SDS011;66672;50.328;7.610;2023-05-19T03:08:25;5.28;;;1.88;;
77544;SDS011;66672;50.328;7.610;2023-05-19T03:10:50;4.88;;;2.00;;
77544;SDS011;66672;50.328;7.610;2023-05-19T03:13:16;9.23;;;3.40;;
77544;SDS011;66672;50.328;7.610;2023-05-19T03:15:41;4.80;;;2.30;;
77544;SDS011;66672;50.328;7.610;2023-05-19T03:18:06;4.15;;;2.05;;
77544;SDS011;66672;50.328;7.610;2023-05-19T03:20:31;5.97;;;2.17;;
77544;SDS011;66672;50.328;7.610;2023-05-19T03:22:57;4.85;;;1.65;;
77544;SDS011;66672;50.328;7.610;2023-05-19T03:25:22;7.80;;;2.40;;
77544;SDS011;66672;50.328;7.610;2023-05-19T03:27:47;4.80;;;1.90;;
77544;SDS011;66672;50.328;7.610;2023-05-19T03:30:13;5.93;;;2.53;;
77544;SDS011;66672;50.328;7.610;2023-05-19T03:32:38;4.35;;;2.17;;
77544;SDS011;66672;50.328;7.610;2023-05-19T03:35:04;5.03;;;1.90;;
77544;SDS011;66672;50.328;7.610;2023-05-19T03:37:29;6.03;;;2.10;;
77544;SDS011;66672;50.328;7.610;2023-05-19T03:39:54;5.45;;;1.95;;
77544;SDS011;66672;50.328;7.610;2023-05-19T03:42:20;4.88;;;2.00;;
77544;SDS011;66672;50.328;7.610;2023-05-19T03:44:45;4.80;;;1.73;;
77544;SDS011;66672;50.328;7.610;2023-05-19T03:47:10;4.68;;;1.80;;
77544;SDS011;66672;50.328;7.610;2023-05-19T03:49:35;4.00;;;1.70;;
77544;SDS011;66672;50.328;7.610;2023-05-19T03:52:00;4.43;;;1.73;;
77544;SDS011;66672;50.328;7.610;2023-05-19T03:54:27;4.22;;;1.80;;
77544;SDS011;66672;50.328;7.610;2023-05-19T03:56:52;7.28;;;2.05;;
77544;SDS011;66672;50.328;7.610;2023-05-19T03:59:17;5.18;;;1.90;;
77544;SDS011;66672;50.328;7.610;2023-05-19T04:01:43;4.80;;;2.00;;
77544;SDS011;66672;50.328;7.610;2023-05-19T04:04:08;4.68;;;2.35;;
77544;SDS011;66672;50.328;7.610;2023-05-19T04:06:33;3.60;;;2.03;;
77544;SDS011;66672;50.328;7.610;2023-05-19T04:09:01;5.95;;;1.95;;
77544;SDS011;66672;50.328;7.610;2023-05-19T04:11:26;6.30;;;2.47;;
77544;SDS011;66672;50.328;7.610;2023-05-19T04:13:51;5.20;;;2.00;;
77544;SDS011;66672;50.328;7.610;2023-05-19T04:16:16;4.68;;;2.10;;
77544;SDS011;66672;50.328;7.610;2023-05-19T04:18:42;4.75;;;2.10;;
77544;SDS011;66672;50.328;7.610;2023-05-19T04:21:09;6.18;;;2.63;;
77544;SDS011;66672;50.328;7.610;2023-05-19T04:23:34;4.45;;;2.10;;
77544;SDS011;66672;50.328;7.610;2023-05-19T04:25:59;8.60;;;3.05;;
77544;SDS011;66672;50.328;7.610;2023-05-19T04:28:26;5.65;;;2.25;;
77544;SDS011;66672;50.328;7.610;2023-05-19T04:30:51;5.32;;;2.40;;
77544;SDS011;66672;50.328;7.610;2023-05-19T04:33:16;7.53;;;2.53;;
77544;SDS011;66672;50.328;7.610;2023-05-19T04:35:43;6.28;;;2.30;;
77544;SDS011;66672;50.328;7.610;2023-05-19T04:38:09;6.20;;;2.40;;
77544;SDS011;66672;50.328;7.610;2023-05-19T04:40:35;5.97;;;2.92;;
77544;SDS011;66672;50.328;7.610;2023-05-19T04:43:01;5.63;;;2.35;;
77544;SDS011;66672;50.328;7.610;2023-05-19T04:45:26;3.63;;;2.17;;
77544;SDS011;66672;50.328;7.610;2023-05-19T04:47:51;6.00;;;2.42;;
77544;SDS011;66672;50.328;7.610;2023-05-19T04:50:21;8.70;;;2.97;;
77544;SDS011;66672;50.328;7.610;2023-05-19T04:52:47;8.00;;;2.78;;
77544;SDS011;66672;50.328;7.610;2023-05-19T04:55:12;5.57;;;2.67;;
77544;SDS011;66672;50.328;7.610;2023-05-19T04:57:37;9.40;;;4.10;;
77544;SDS011;66672;50.328;7.610;2023-05-19T05:00:02;8.13;;;3.08;;
77544;SDS011;66672;50.328;7.610;2023-05-19T05:02:32;5.40;;;2.90;;
77544;SDS011;66672;50.328;7.610;2023-05-19T05:04:58;7.57;;;2.95;;
77544;SDS011;66672;50.328;7.610;2023-05-19T05:07:23;5.95;;;3.05;;
77544;SDS011;66672;50.328;7.610;2023-05-19T05:09:49;7.65;;;3.20;;
77544;SDS011;66672;50.328;7.610;2023-05-19T05:12:16;5.68;;;2.33;;
77544;SDS011;66672;50.328;7.610;2023-05-19T05:14:41;5.57;;;3.20;;
77544;SDS011;66672;50.328;7.610;2023-05-19T05:17:06;9.07;;;2.60;;
77544;SDS011;66672;50.328;7.610;2023-05-19T05:19:32;8.52;;;2.78;;
77544;SDS011;66672;50.328;7.610;2023-05-19T05:21:57;7.80;;;2.67;;
77544;SDS011;66672;50.328;7.610;2023-05-19T05:24:23;6.72;;;2.83;;
77544;SDS011;66672;50.328;7.610;2023-05-19T05:26:48;5.72;;;2.80;;
77544;SDS011;66672;50.328;7.610;2023-05-19T05:29:13;5.57;;;2.53;;
77544;SDS011;66672;50.328;7.610;2023-05-19T05:31:38;7.10;;;2.55;;
77544;SDS011;66672;50.328;7.610;2023-05-19T05:34:03;6.72;;;2.67;;
77544;SDS011;66672;50.328;7.610;2023-05-19T05:36:29;6.22;;;2.90;;
77544;SDS011;66672;50.328;7.610;2023-05-19T05:38:55;5.80;;;2.95;;
77544;SDS011;66672;50.328;7.610;2023-05-19T05:41:20;8.23;;;2.78;;
77544;SDS011;66672;50.328;7.610;2023-05-19T05:43:46;6.78;;;3.28;;
77544;SDS011;66672;50.328;7.610;2023-05-19T05:46:11;9.05;;;4.50;;
77544;SDS011;66672;50.328;7.610;2023-05-19T05:48:36;8.38;;;3.40;;
77544;SDS011;66672;50.328;7.610;2023-05-19T05:51:02;8.93;;;3.60;;
77544;SDS011;66672;50.328;7.610;2023-05-19T05:53:28;7.95;;;3.70;;
77544;SDS011;66672;50.328;7.610;2023-05-19T05:55:54;6.05;;;3.13;;
77544;SDS011;66672;50.328;7.610;2023-05-19T05:58:20;7.32;;;3.38;;
77544;SDS011;66672;50.328;7.610;2023-05-19T06:00:46;6.55;;;3.50;;
77544;SDS011;66672;50.328;7.610;2023-05-19T06:03:13;6.75;;;2.88;;
77544;SDS011;66672;50.328;7.610;2023-05-19T06:05:38;6.88;;;3.10;;
77544;SDS011;66672;50.328;7.610;2023-05-19T06:08:04;8.02;;;3.60;;
77544;SDS011;66672;50.328;7.610;2023-05-19T06:10:29;6.25;;;3.72;;
77544;SDS011;66672;50.328;7.610;2023-05-19T06:12:55;7.75;;;3.67;;
77544;SDS011;66672;50.328;7.610;2023-05-19T06:15:21;9.43;;;3.42;;
77544;SDS011;66672;50.328;7.610;2023-05-19T06:17:46;8.88;;;3.35;;
77544;SDS011;66672;50.328;7.610;2023-05-19T06:20:11;7.20;;;3.38;;
77544;SDS011;66672;50.328;7.610;2023-05-19T06:22:37;6.90;;;3.60;;
77544;SDS011;66672;50.328;7.610;2023-05-19T06:25:02;7.88;;;3.50;;
77544;SDS011;66672;50.328;7.610;2023-05-19T06:27:27;23.23;;;13.00;;
77544;SDS011;66672;50.328;7.610;2023-05-19T06:29:53;20.08;;;11.60;;
77544;SDS011;66672;50.328;7.610;2023-05-19T06:32:18;13.52;;;9.07;;
77544;SDS011;66672;50.328;7.610;2023-05-19T06:34:43;14.65;;;7.00;;
77544;SDS011;66672;50.328;7.610;2023-05-19T06:37:08;10.98;;;6.63;;
77544;SDS011;66672;50.328;7.610;2023-05-19T06:39:33;6.97;;;4.28;;
77544;SDS011;66672;50.328;7.610;2023-05-19T06:41:58;7.15;;;4.10;;
77544;SDS011;66672;50.328;7.610;2023-05-19T06:44:24;8.52;;;4.13;;
77544;SDS011;66672;50.328;7.610;2023-05-19T06:46:49;8.27;;;3.40;;
77544;SDS011;66672;50.328;7.610;2023-05-19T06:49:14;10.00;;;3.45;;
77544;SDS011;66672;50.328;7.610;2023-05-19T06:51:39;7.72;;;4.00;;
77544;SDS011;66672;50.328;7.610;2023-05-19T06:54:05;7.82;;;3.65;;
77544;SDS011;66672;50.328;7.610;2023-05-19T06:56:30;6.75;;;3.60;;
77544;SDS011;66672;50.328;7.610;2023-05-19T06:58:55;6.22;;;3.40;;
77544;SDS011;66672;50.328;7.610;2023-05-19T07:01:20;9.00;;;3.65;;
77544;SDS011;66672;50.328;7.610;2023-05-19T07:03:46;6.85;;;3.72;;
77544;SDS011;66672;50.328;7.610;2023-05-19T07:06:12;6.20;;;3.33;;
77544;SDS011;66672;50.328;7.610;2023-05-19T07:08:37;6.93;;;3.70;;
77544;SDS011;66672;50.328;7.610;2023-05-19T07:11:02;5.40;;;3.08;;
77544;SDS011;66672;50.328;7.610;2023-05-19T07:13:27;6.32;;;3.45;;
77544;SDS011;66672;50.328;7.610;2023-05-19T07:15:52;7.80;;;2.58;;
77544;SDS011;66672;50.328;7.610;2023-05-19T07:18:21;9.40;;;3.25;;
77544;SDS011;66672;50.328;7.610;2023-05-19T07:20:46;7.97;;;3.03;;
77544;SDS011;66672;50.328;7.610;2023-05-19T07:23:11;6.60;;;2.95;;
77544;SDS011;66672;50.328;7.610;2023-05-19T07:25:36;7.90;;;3.58;;
77544;SDS011;66672;50.328;7.610;2023-05-19T07:28:02;6.82;;;2.83;;
77544;SDS011;66672;50.328;7.610;2023-05-19T07:30:27;7.82;;;2.58;;
77544;SDS011;66672;50.328;7.610;2023-05-19T07:32:52;7.32;;;2.90;;
77544;SDS011;66672;50.328;7.610;2023-05-19T07:35:18;10.07;;;3.47;;
77544;SDS011;66672;50.328;7.610;2023-05-19T07:37:43;7.57;;;3.38;;
77544;SDS011;66672;50.328;7.610;2023-05-19T07:40:09;9.27;;;3.25;;
77544;SDS011;66672;50.328;7.610;2023-05-19T07:42:34;7.75;;;3.35;;
77544;SDS011;66672;50.328;7.610;2023-05-19T07:44:59;9.52;;;3.78;;
77544;SDS011;66672;50.328;7.610;2023-05-19T07:47:25;9.60;;;3.38;;
77544;SDS011;66672;50.328;7.610;2023-05-19T07:49:50;9.20;;;3.40;;
77544;SDS011;66672;50.328;7.610;2023-05-19T07:52:15;9.27;;;3.92;;
77544;SDS011;66672;50.328;7.610;2023-05-19T07:54:42;8.25;;;2.80;;
77544;SDS011;66672;50.328;7.610;2023-05-19T07:57:07;8.52;;;3.40;;
77544;SDS011;66672;50.328;7.610;2023-05-19T07:59:32;6.65;;;2.42;;
77544;SDS011;66672;50.328;7.610;2023-05-19T08:01:57;7.35;;;3.30;;
77544;SDS011;66672;50.328;7.610;2023-05-19T08:04:22;9.68;;;3.00;;
77544;SDS011;66672;50.328;7.610;2023-05-19T08:06:48;7.65;;;2.83;;
77544;SDS011;66672;50.328;7.610;2023-05-19T08:09:13;5.88;;;2.63;;
77544;SDS011;66672;50.328;7.610;2023-05-19T08:11:38;6.50;;;3.00;;
77544;SDS011;66672;50.328;7.610;2023-05-19T08:14:03;6.38;;;2.80;;
77544;SDS011;66672;50.328;7.610;2023-05-19T08:16:29;5.68;;;2.47;;
77544;SDS011;66672;50.328;7.610;2023-05-19T08:18:54;8.50;;;3.28;;
77544;SDS011;66672;50.328;7.610;2023-05-19T08:21:19;6.70;;;2.50;;
77544;SDS011;66672;50.328;7.610;2023-05-19T08:23:45;5.40;;;2.50;;
77544;SDS011;66672;50.328;7.610;2023-05-19T08:26:10;6.15;;;2.63;;
77544;SDS011;66672;50.328;7.610;2023-05-19T08:28:35;6.88;;;2.90;;
77544;SDS011;66672;50.328;7.610;2023-05-19T08:31:01;6.90;;;2.53;;
77544;SDS011;66672;50.328;7.610;2023-05-19T08:33:26;6.93;;;2.58;;
77544;SDS011;66672;50.328;7.610;2023-05-19T08:35:51;4.85;;;2.97;;
77544;SDS011;66672;50.328;7.610;2023-05-19T08:38:16;5.10;;;2.50;;
77544;SDS011;66672;50.328;7.610;2023-05-19T08:40:42;6.45;;;2.53;;
77544;SDS011;66672;50.328;7.610;2023-05-19T08:43:10;9.63;;;2.35;;
77544;SDS011;66672;50.328;7.610;2023-05-19T08:45:35;5.80;;;2.35;;
77544;SDS011;66672;50.328;7.610;2023-05-19T08:48:02;5.28;;;2.10;;
77544;SDS011;66672;50.328;7.610;2023-05-19T08:50:28;5.50;;;2.08;;
77544;SDS011;66672;50.328;7.610;2023-05-19T08:53:00;4.50;;;1.98;;
77544;SDS011;66672;50.328;7.610;2023-05-19T08:57:53;7.18;;;2.05;;
77544;SDS011;66672;50.328;7.610;2023-05-19T09:00:18;5.55;;;1.90;;
77544;SDS011;66672;50.328;7.610;2023-05-19T09:02:44;5.82;;;1.50;;
77544;SDS011;66672;50.328;7.610;2023-05-19T09:05:11;5.88;;;2.00;;
77544;SDS011;66672;50.328;7.610;2023-05-19T09:07:37;6.35;;;2.03;;
77544;SDS011;66672;50.328;7.610;2023-05-19T09:10:02;5.05;;;2.30;;
77544;SDS011;66672;50.328;7.610;2023-05-19T09:12:27;6.75;;;1.85;;
77544;SDS011;66672;50.328;7.610;2023-05-19T09:14:53;5.30;;;1.88;;
77544;SDS011;66672;50.328;7.610;2023-05-19T09:17:18;4.70;;;1.70;;
77544;SDS011;66672;50.328;7.610;2023-05-19T09:19:43;4.55;;;1.50;;
77544;SDS011;66672;50.328;7.610;2023-05-19T09:22:09;4.38;;;1.83;;
77544;SDS011;66672;50.328;7.610;2023-05-19T09:24:34;4.93;;;1.90;;
77544;SDS011;66672;50.328;7.610;2023-05-19T09:27:00;5.25;;;1.95;;
77544;SDS011;66672;50.328;7.610;2023-05-19T09:29:26;7.35;;;1.98;;
77544;SDS011;66672;50.328;7.610;2023-05-19T09:31:54;4.68;;;1.83;;
77544;SDS011;66672;50.328;7.610;2023-05-19T09:34:24;7.10;;;1.92;;
77544;SDS011;66672;50.328;7.610;2023-05-19T09:36:50;3.95;;;2.10;;
77544;SDS011;66672;50.328;7.610;2023-05-19T09:39:21;6.80;;;1.98;;
77544;SDS011;66672;50.328;7.610;2023-05-19T09:41:46;6.07;;;2.00;;
77544;SDS011;66672;50.328;7.610;2023-05-19T09:44:24;5.43;;;1.85;;
77544;SDS011;66672;50.328;7.610;2023-05-19T09:46:56;6.15;;;1.98;;
77544;SDS011;66672;50.328;7.610;2023-05-19T09:49:23;6.25;;;1.90;;
77544;SDS011;66672;50.328;7.610;2023-05-19T09:51:49;6.40;;;1.67;;
77544;SDS011;66672;50.328;7.610;2023-05-19T09:54:15;6.05;;;1.90;;
77544;SDS011;66672;50.328;7.610;2023-05-19T09:56:40;4.75;;;1.90;;
77544;SDS011;66672;50.328;7.610;2023-05-19T09:59:05;5.45;;;1.73;;
77544;SDS011;66672;50.328;7.610;2023-05-19T10:01:31;5.10;;;1.60;;
77544;SDS011;66672;50.328;7.610;2023-05-19T10:03:57;3.65;;;1.40;;
77544;SDS011;66672;50.328;7.610;2023-05-19T10:06:23;4.15;;;1.80;;
77544;SDS011;66672;50.328;7.610;2023-05-19T10:08:49;6.07;;;1.83;;
77544;SDS011;66672;50.328;7.610;2023-05-19T10:11:15;4.72;;;1.77;;
77544;SDS011;66672;50.328;7.610;2023-05-19T10:13:41;5.50;;;1.70;;
77544;SDS011;66672;50.328;7.610;2023-05-19T10:16:07;6.93;;;1.75;;
77544;SDS011;66672;50.328;7.610;2023-05-19T10:18:33;6.03;;;1.92;;
77544;SDS011;66672;50.328;7.610;2023-05-19T10:20:58;4.15;;;2.00;;
77544;SDS011;66672;50.328;7.610;2023-05-19T10:23:24;7.35;;;2.22;;
77544;SDS011;66672;50.328;7.610;2023-05-19T10:25:50;6.85;;;1.65;;
77544;SDS011;66672;50.328;7.610;2023-05-19T10:28:16;4.32;;;1.60;;
77544;SDS011;66672;50.328;7.610;2023-05-19T10:30:43;3.45;;;1.45;;
77544;SDS011;66672;50.328;7.610;2023-05-19T10:33:15;8.25;;;2.08;;
77544;SDS011;66672;50.328;7.610;2023-05-19T10:35:47;7.50;;;2.17;;
77544;SDS011;66672;50.328;7.610;2023-05-19T10:40:48;5.40;;;1.65;;
77544;SDS011;66672;50.328;7.610;2023-05-19T10:43:27;5.97;;;2.25;;
77544;SDS011;66672;50.328;7.610;2023-05-19T10:45:53;5.20;;;1.70;;
77544;SDS011;66672;50.328;7.610;2023-05-19T10:48:19;7.70;;;1.92;;
77544;SDS011;66672;50.328;7.610;2023-05-19T10:50:46;4.68;;;1.58;;
77544;SDS011;66672;50.328;7.610;2023-05-19T10:53:15;6.78;;;1.70;;
77544;SDS011;66672;50.328;7.610;2023-05-19T10:55:49;5.93;;;1.70;;
77544;SDS011;66672;50.328;7.610;2023-05-19T10:58:17;8.50;;;1.92;;
77544;SDS011;66672;50.328;7.610;2023-05-19T11:01:00;6.60;;;2.00;;
77544;SDS011;66672;50.328;7.610;2023-05-19T11:03:25;4.63;;;1.85;;
77544;SDS011;66672;50.328;7.610;2023-05-19T11:05:56;5.22;;;1.90;;
77544;SDS011;66672;50.328;7.610;2023-05-19T11:08:38;6.22;;;1.60;;
77544;SDS011;66672;50.328;7.610;2023-05-19T11:11:14;5.57;;;1.83;;
77544;SDS011;66672;50.328;7.610;2023-05-19T11:13:41;6.68;;;1.75;;
77544;SDS011;66672;50.328;7.610;2023-05-19T11:16:07;4.93;;;2.00;;
77544;SDS011;66672;50.328;7.610;2023-05-19T11:18:33;4.68;;;1.88;;
77544;SDS011;66672;50.328;7.610;2023-05-19T11:20:59;7.32;;;1.70;;
77544;SDS011;66672;50.328;7.610;2023-05-19T11:23:26;3.15;;;1.50;;
77544;SDS011;66672;50.328;7.610;2023-05-19T11:25:51;6.78;;;2.00;;
77544;SDS011;66672;50.328;7.610;2023-05-19T11:28:22;5.35;;;1.70;;
77544;SDS011;66672;50.328;7.610;2023-05-19T11:30:53;5.30;;;2.22;;
77544;SDS011;66672;50.328;7.610;2023-05-19T11:33:19;5.72;;;1.60;;
77544;SDS011;66672;50.328;7.610;2023-05-19T11:35:45;3.83;;;1.52;;
77544;SDS011;66672;50.328;7.610;2023-05-19T11:38:11;4.25;;;1.83;;
77544;SDS011;66672;50.328;7.610;2023-05-19T11:40:37;5.03;;;1.50;;
77544;SDS011;66672;50.328;7.610;2023-05-19T11:43:03;3.70;;;1.90;;
77544;SDS011;66672;50.328;7.610;2023-05-19T11:45:30;6.43;;;1.67;;
77544;SDS011;66672;50.328;7.610;2023-05-19T11:47:55;4.18;;;1.52;;
77544;SDS011;66672;50.328;7.610;2023-05-19T11:50:21;3.85;;;1.80;;
77544;SDS011;66672;50.328;7.610;2023-05-19T11:52:46;4.00;;;1.63;;
77544;SDS011;66672;50.328;7.610;2023-05-19T11:55:18;5.57;;;1.90;;
77544;SDS011;66672;50.328;7.610;2023-05-19T12:00:26;5.13;;;1.95;;
77544;SDS011;66672;50.328;7.610;2023-05-19T12:02:52;5.28;;;1.73;;
77544;SDS011;66672;50.328;7.610;2023-05-19T12:05:21;6.25;;;1.55;;
77544;SDS011;66672;50.328;7.610;2023-05-19T12:07:46;3.92;;;1.50;;
77544;SDS011;66672;50.328;7.610;2023-05-19T12:10:13;4.68;;;1.60;;
77544;SDS011;66672;50.328;7.610;2023-05-19T12:12:38;9.55;;;2.60;;
77544;SDS011;66672;50.328;7.610;2023-05-19T12:15:04;5.03;;;1.42;;
77544;SDS011;66672;50.328;7.610;2023-05-19T12:17:31;6.10;;;2.00;;
77544;SDS011;66672;50.328;7.610;2023-05-19T12:19:56;5.93;;;1.88;;
77544;SDS011;66672;50.328;7.610;2023-05-19T12:22:21;4.03;;;1.77;;
77544;SDS011;66672;50.328;7.610;2023-05-19T12:24:46;5.22;;;1.58;;
77544;SDS011;66672;50.328;7.610;2023-05-19T12:27:18;4.32;;;1.60;;
77544;SDS011;66672;50.328;7.610;2023-05-19T12:29:50;4.35;;;1.75;;
77544;SDS011;66672;50.328;7.610;2023-05-19T12:32:25;3.03;;;1.45;;
77544;SDS011;66672;50.328;7.610;2023-05-19T12:34:51;3.42;;;1.48;;
77544;SDS011;66672;50.328;7.610;2023-05-19T12:37:16;5.13;;;1.45;;
77544;SDS011;66672;50.328;7.610;2023-05-19T12:39:42;6.47;;;1.65;;
77544;SDS011;66672;50.328;7.610;2023-05-19T12:42:08;5.43;;;1.50;;
77544;SDS011;66672;50.328;7.610;2023-05-19T12:44:36;4.43;;;1.48;;
77544;SDS011;66672;50.328;7.610;2023-05-19T12:47:03;3.70;;;1.40;;
77544;SDS011;66672;50.328;7.610;2023-05-19T12:49:28;3.53;;;1.30;;
77544;SDS011;66672;50.328;7.610;2023-05-19T12:51:54;4.93;;;1.95;;
77544;SDS011;66672;50.328;7.610;2023-05-19T12:54:19;3.85;;;1.50;;
77544;SDS011;66672;50.328;7.610;2023-05-19T12:56:49;3.33;;;1.23;;
77544;SDS011;66672;50.328;7.610;2023-05-19T12:59:23;4.03;;;1.40;;
77544;SDS011;66672;50.328;7.610;2023-05-19T13:01:55;3.97;;;1.40;;
77544;SDS011;66672;50.328;7.610;2023-05-19T13:04:20;3.58;;;1.20;;
77544;SDS011;66672;50.328;7.610;2023-05-19T13:06:45;4.25;;;1.35;;
77544;SDS011;66672;50.328;7.610;2023-05-19T13:09:13;3.90;;;1.13;;
77544;SDS011;66672;50.328;7.610;2023-05-19T13:11:38;2.60;;;1.02;;
77544;SDS011;66672;50.328;7.610;2023-05-19T13:14:04;5.30;;;2.80;;
77544;SDS011;66672;50.328;7.610;2023-05-19T13:16:29;4.07;;;1.50;;
77544;SDS011;66672;50.328;7.610;2023-05-19T13:18:54;4.57;;;1.55;;
77544;SDS011;66672;50.328;7.610;2023-05-19T13:21:19;3.42;;;1.23;;
77544;SDS011;66672;50.328;7.610;2023-05-19T13:23:45;3.90;;;1.08;;
77544;SDS011;66672;50.328;7.610;2023-05-19T13:26:10;5.00;;;1.40;;
77544;SDS011;66672;50.328;7.610;2023-05-19T13:28:37;6.07;;;1.58;;
77544;SDS011;66672;50.328;7.610;2023-05-19T13:31:02;4.13;;;1.40;;
77544;SDS011;66672;50.328;7.610;2023-05-19T13:33:27;5.38;;;1.90;;
77544;SDS011;66672;50.328;7.610;2023-05-19T13:35:52;3.05;;;1.23;;
77544;SDS011;66672;50.328;7.610;2023-05-19T13:38:17;2.75;;;1.20;;
77544;SDS011;66672;50.328;7.610;2023-05-19T13:40:43;2.70;;;1.45;;
77544;SDS011;66672;50.328;7.610;2023-05-19T13:43:09;4.60;;;1.10;;
77544;SDS011;66672;50.328;7.610;2023-05-19T13:45:34;3.22;;;1.40;;
77544;SDS011;66672;50.328;7.610;2023-05-19T13:47:59;3.67;;;1.50;;
77544;SDS011;66672;50.328;7.610;2023-05-19T13:50:24;4.20;;;1.40;;
77544;SDS011;66672;50.328;7.610;2023-05-19T13:52:50;4.00;;;1.23;;
77544;SDS011;66672;50.328;7.610;2023-05-19T13:55:15;3.08;;;1.30;;
77544;SDS011;66672;50.328;7.610;2023-05-19T13:57:41;3.38;;;1.33;;
77544;SDS011;66672;50.328;7.610;2023-05-19T14:00:06;3.78;;;1.50;;
77544;SDS011;66672;50.328;7.610;2023-05-19T14:02:32;4.30;;;1.65;;
77544;SDS011;66672;50.328;7.610;2023-05-19T14:04:57;3.75;;;1.55;;
77544;SDS011;66672;50.328;7.610;2023-05-19T14:07:22;3.90;;;1.30;;
77544;SDS011;66672;50.328;7.610;2023-05-19T14:09:48;3.90;;;1.42;;
77544;SDS011;66672;50.328;7.610;2023-05-19T14:12:14;3.45;;;1.45;;
77544;SDS011;66672;50.328;7.610;2023-05-19T14:14:40;5.07;;;1.40;;
77544;SDS011;66672;50.328;7.610;2023-05-19T14:17:05;3.65;;;1.30;;
77544;SDS011;66672;50.328;7.610;2023-05-19T14:19:30;5.43;;;1.80;;
77544;SDS011;66672;50.328;7.610;2023-05-19T14:21:56;2.90;;;1.23;;
77544;SDS011;66672;50.328;7.610;2023-05-19T14:24:21;2.83;;;1.15;;
77544;SDS011;66672;50.328;7.610;2023-05-19T14:26:46;3.88;;;1.20;;
77544;SDS011;66672;50.328;7.610;2023-05-19T14:29:11;3.55;;;1.40;;
77544;SDS011;66672;50.328;7.610;2023-05-19T14:31:36;3.08;;;1.45;;
77544;SDS011;66672;50.328;7.610;2023-05-19T14:34:01;4.38;;;1.40;;
77544;SDS011;66672;50.328;7.610;2023-05-19T14:36:27;3.30;;;1.50;;
77544;SDS011;66672;50.328;7.610;2023-05-19T14:38:52;4.43;;;1.42;;
77544;SDS011;66672;50.328;7.610;2023-05-19T14:41:17;6.00;;;1.48;;
77544;SDS011;66672;50.328;7.610;2023-05-19T14:43:42;2.50;;;1.17;;
77544;SDS011;66672;50.328;7.610;2023-05-19T14:46:07;4.35;;;1.50;;
77544;SDS011;66672;50.328;7.610;2023-05-19T14:48:32;3.38;;;1.50;;
77544;SDS011;66672;50.328;7.610;2023-05-19T14:50:58;3.78;;;1.40;;
77544;SDS011;66672;50.328;7.610;2023-05-19T14:53:23;3.08;;;1.33;;
77544;SDS011;66672;50.328;7.610;2023-05-19T14:55:48;4.50;;;1.30;;
77544;SDS011;66672;50.328;7.610;2023-05-19T14:58:13;4.22;;;1.60;;
77544;SDS011;66672;50.328;7.610;2023-05-19T15:00:40;4.60;;;1.67;;